^^
B2 Weather Station Historical Data
Daily Summary for January 1, 2019 Units:  English    Metric   Both
Daily Weekly Monthly Yearly Custom
  High: Low: Average:
Temperature: 35.5 °F 29.3 °F 31.9 °F
Dew Point: 34.2 °F 27.8 °F 30.4 °F
Humidity: 95% 92% 94%
Wind Speed: 12.7mph 0.0mph 5.9mph
Wind Gust: 9.1mph - -
Wind- - WSW
Pressure: 30.36 in 29.96 in -
Precipitation: 0.00 in    
Historical Graphs
 
 
Tabular Data for January 1, 2019
Time Temperature Dew Point Pressure Wind Wind Speed Wind Gust Humidity Rainfall Rate (Hourly) solar
00:04 35.5 °F 34.2 °F 29.96 in NW 10.4 mph 5.0 mph 95% 0.00 in 0.00 W/m2
00:09 35.5 °F 34.2 °F 29.96 in NW 6.9 mph 4.3 mph 95% 0.00 in 0.00 W/m2
00:14 35.4 °F 33.8 °F 29.97 in NW 6.0 mph 3.5 mph 94% 0.00 in 0.00 W/m2
00:19 35.3 °F 33.7 °F 29.98 in WNW 4.6 mph 3.0 mph 94% 0.00 in 0.00 W/m2
00:24 35.3 °F 33.7 °F 29.98 in NNW 6.0 mph 5.9 mph 94% 0.00 in 0.00 W/m2
00:29 35.3 °F 33.7 °F 29.99 in NW 6.9 mph 4.2 mph 94% 0.00 in 0.00 W/m2
00:34 35.3 °F 33.7 °F 29.99 in NW 4.6 mph 2.8 mph 94% 0.00 in 0.00 W/m2
00:39 35.3 °F 33.7 °F 30.00 in WNW 6.0 mph 3.4 mph 94% 0.00 in 0.00 W/m2
00:44 35.3 °F 34.0 °F 30.00 in WNW 9.2 mph 3.4 mph 95% 0.00 in 0.00 W/m2
00:49 35.3 °F 34.0 °F 30.01 in NW 9.2 mph 3.6 mph 95% 0.00 in 0.00 W/m2
00:54 35.3 °F 34.0 °F 30.02 in NW 11.5 mph 4.1 mph 95% 0.00 in 0.00 W/m2
00:59 35.3 °F 34.0 °F 30.02 in NW 8.1 mph 3.5 mph 95% 0.00 in 0.00 W/m2
01:04 35.2 °F 33.6 °F 30.02 in WNW 6.0 mph 4.2 mph 94% 0.00 in 0.00 W/m2
01:09 35.2 °F 33.6 °F 30.02 in NW 5.8 mph 2.5 mph 94% 0.00 in 0.00 W/m2
01:14 35.2 °F 33.6 °F 30.03 in WNW 7.0 mph 3.1 mph 94% 0.00 in 0.00 W/m2
01:19 35.2 °F 33.6 °F 30.04 in WNW 4.6 mph 2.0 mph 94% 0.00 in 0.00 W/m2
01:24 35.2 °F 33.6 °F 30.04 in North 8.1 mph 2.3 mph 94% 0.00 in 0.00 W/m2
01:29 35.1 °F 33.5 °F 30.04 in NW 9.2 mph 4.2 mph 94% 0.00 in 0.00 W/m2
01:34 35.1 °F 33.5 °F 30.04 in NW 5.8 mph 3.7 mph 94% 0.00 in 0.00 W/m2
01:39 35.0 °F 33.4 °F 30.04 in NW 10.4 mph 4.2 mph 94% 0.00 in 0.00 W/m2
01:44 35.0 °F 33.4 °F 30.05 in NW 6.9 mph 3.9 mph 94% 0.00 in 0.00 W/m2
01:49 34.9 °F 33.3 °F 30.05 in WNW 6.9 mph 5.5 mph 94% 0.00 in 0.00 W/m2
01:54 34.9 °F 33.3 °F 30.06 in WNW 7.0 mph 3.4 mph 94% 0.00 in 0.00 W/m2
01:59 34.8 °F 33.2 °F 30.06 in WNW 6.9 mph 4.0 mph 94% 0.00 in 0.00 W/m2
02:04 34.8 °F 33.2 °F 30.07 in WNW 4.6 mph 1.3 mph 94% 0.00 in 0.00 W/m2
02:09 34.7 °F 33.2 °F 30.08 in NW 4.6 mph 2.8 mph 94% 0.00 in 0.00 W/m2
02:14 34.7 °F 33.2 °F 30.08 in West 6.9 mph 3.1 mph 94% 0.00 in 0.00 W/m2
02:19 34.7 °F 33.2 °F 30.09 in WNW 6.9 mph 2.6 mph 94% 0.00 in 0.00 W/m2
02:24 34.6 °F 33.1 °F 30.09 in NNW 6.9 mph 4.3 mph 94% 0.00 in 0.00 W/m2
02:29 34.5 °F 33.0 °F 30.09 in NW 7.0 mph 3.9 mph 94% 0.00 in 0.00 W/m2
02:34 34.5 °F 33.0 °F 30.09 in NW 10.4 mph 5.5 mph 94% 0.00 in 0.00 W/m2
02:39 34.4 °F 32.9 °F 30.10 in WNW 5.8 mph 3.7 mph 94% 0.00 in 0.00 W/m2
02:44 34.4 °F 32.9 °F 30.10 in NW 5.8 mph 4.4 mph 94% 0.00 in 0.00 W/m2
02:49 34.4 °F 33.1 °F 30.10 in WNW 5.8 mph 4.0 mph 95% 0.00 in 0.00 W/m2
02:54 34.3 °F 33.0 °F 30.10 in WNW 8.1 mph 5.2 mph 95% 0.00 in 0.00 W/m2
02:59 34.2 °F 32.9 °F 30.10 in NW 6.9 mph 3.6 mph 95% 0.00 in 0.00 W/m2
03:04 34.1 °F 32.6 °F 30.10 in NW 9.2 mph 5.8 mph 94% 0.00 in 0.00 W/m2
03:09 34.0 °F 32.5 °F 30.10 in NW 5.0 mph 3.4 mph 94% 0.00 in 0.00 W/m2
03:14 33.9 °F 32.4 °F 30.11 in WNW 4.6 mph 2.4 mph 94% 0.00 in 0.00 W/m2
03:19 33.9 °F 32.6 °F 30.10 in NW 10.4 mph 3.4 mph 95% 0.00 in 0.00 W/m2
03:24 33.8 °F 32.5 °F 30.11 in NW 3.5 mph 2.2 mph 95% 0.00 in 0.00 W/m2
03:29 33.7 °F 32.4 °F 30.11 in West 8.1 mph 3.6 mph 95% 0.00 in 0.00 W/m2
03:34 33.7 °F 32.4 °F 30.11 in NW 6.0 mph 3.6 mph 95% 0.00 in 0.00 W/m2
03:39 33.6 °F 32.1 °F 30.12 in NW 6.9 mph 4.1 mph 94% 0.00 in 0.00 W/m2
03:44 33.5 °F 32.0 °F 30.12 in North 5.8 mph 4.2 mph 94% 0.00 in 0.00 W/m2
03:49 33.5 °F 32.0 °F 30.12 in NW 5.8 mph 2.6 mph 94% 0.00 in 0.00 W/m2
03:54 33.4 °F 32.1 °F 30.13 in NW 6.0 mph 3.5 mph 95% 0.00 in 0.00 W/m2
03:59 33.4 °F 32.1 °F 30.13 in NW 6.9 mph 1.9 mph 95% 0.00 in 0.00 W/m2
04:04 33.4 °F 32.1 °F 30.13 in NW 3.5 mph 2.4 mph 95% 0.00 in 0.00 W/m2
04:09 33.4 °F 32.1 °F 30.13 in NW 5.8 mph 3.7 mph 95% 0.00 in 0.00 W/m2
04:14 33.4 °F 32.1 °F 30.14 in NW 5.8 mph 2.1 mph 95% 0.00 in 0.00 W/m2
04:19 33.3 °F 32.0 °F 30.14 in WNW 7.0 mph 4.4 mph 95% 0.00 in 0.00 W/m2
04:24 33.3 °F 32.0 °F 30.14 in NNW 4.6 mph 2.8 mph 95% 0.00 in 0.00 W/m2
04:29 33.3 °F 32.0 °F 30.14 in NW 4.6 mph 3.4 mph 95% 0.00 in 0.00 W/m2
04:34 33.3 °F 32.0 °F 30.14 in NW 5.8 mph 3.6 mph 95% 0.00 in 0.00 W/m2
04:39 33.3 °F 32.0 °F 30.14 in NW 5.0 mph 3.2 mph 95% 0.00 in 0.00 W/m2
04:44 33.3 °F 32.0 °F 30.15 in NW 3.5 mph 3.2 mph 95% 0.00 in 0.00 W/m2
04:49 33.3 °F 32.0 °F 30.15 in NW 5.8 mph 3.6 mph 95% 0.00 in 0.00 W/m2
04:54 33.3 °F 32.0 °F 30.15 in NNW 4.6 mph 1.9 mph 95% 0.00 in 0.00 W/m2
04:59 33.3 °F 32.0 °F 30.15 in NW 3.5 mph 2.3 mph 95% 0.00 in 0.00 W/m2
05:04 33.3 °F 32.0 °F 30.16 in NNW 4.6 mph 4.1 mph 95% 0.00 in 0.00 W/m2
05:09 33.3 °F 32.0 °F 30.16 in NNW 3.5 mph 2.7 mph 95% 0.00 in 0.00 W/m2
05:14 33.3 °F 32.0 °F 30.16 in NNW 4.6 mph 3.9 mph 95% 0.00 in 0.00 W/m2
05:19 33.2 °F 31.9 °F 30.16 in NNW 6.9 mph 3.7 mph 95% 0.00 in 0.00 W/m2
05:24 33.2 °F 31.9 °F 30.16 in NNW 7.0 mph 4.6 mph 95% 0.00 in 0.00 W/m2
05:29 33.2 °F 31.9 °F 30.16 in NNW 5.8 mph 5.1 mph 95% 0.00 in 0.00 W/m2
05:34 33.2 °F 31.9 °F 30.17 in NNW 6.0 mph 5.4 mph 95% 0.00 in 0.00 W/m2
05:39 33.2 °F 31.9 °F 30.17 in NNW 6.9 mph 4.4 mph 95% 0.00 in 0.00 W/m2
05:44 33.2 °F 31.9 °F 30.17 in NNW 4.6 mph 3.6 mph 95% 0.00 in 0.00 W/m2
05:49 33.1 °F 31.8 °F 30.17 in NNW 5.8 mph 3.1 mph 95% 0.00 in 0.00 W/m2
05:54 33.1 °F 31.8 °F 30.18 in NNW 4.6 mph 4.1 mph 95% 0.00 in 0.00 W/m2
05:59 33.1 °F 31.8 °F 30.18 in NNW 5.8 mph 4.3 mph 95% 0.00 in 0.00 W/m2
06:04 33.1 °F 31.8 °F 30.19 in NNW 5.8 mph 3.8 mph 95% 0.00 in 0.00 W/m2
06:09 33.1 °F 31.8 °F 30.19 in NNW 5.8 mph 4.3 mph 95% 0.00 in 0.00 W/m2
06:14 33.1 °F 31.8 °F 30.20 in NNW 4.6 mph 4.1 mph 95% 0.00 in 0.00 W/m2
06:19 33.1 °F 31.8 °F 30.20 in NNW 3.5 mph 2.5 mph 95% 0.00 in 0.00 W/m2
06:24 33.1 °F 31.8 °F 30.21 in NNW 5.0 mph 4.1 mph 95% 0.00 in 0.00 W/m2
06:29 33.1 °F 31.8 °F 30.21 in North 5.8 mph 3.0 mph 95% 0.00 in 0.00 W/m2
06:34 33.1 °F 31.8 °F 30.21 in North 5.8 mph 3.9 mph 95% 0.00 in 0.00 W/m2
06:39 33.0 °F 31.7 °F 30.22 in North 7.0 mph 5.7 mph 95% 0.00 in 0.00 W/m2
06:44 33.0 °F 31.7 °F 30.21 in NNE 6.9 mph 4.0 mph 95% 0.00 in 0.00 W/m2
06:49 33.0 °F 31.7 °F 30.22 in NNE 8.1 mph 5.8 mph 95% 0.00 in 0.00 W/m2
06:54 33.0 °F 31.7 °F 30.22 in North 6.0 mph 5.5 mph 95% 0.00 in 0.00 W/m2
06:59 33.0 °F 31.7 °F 30.23 in North 8.0 mph 6.4 mph 95% 0.00 in 0.00 W/m2
07:04 33.0 °F 31.7 °F 30.23 in North 7.0 mph 6.3 mph 95% 0.00 in 0.00 W/m2
07:09 32.9 °F 31.6 °F 30.23 in NNE 9.2 mph 6.0 mph 95% 0.00 in 0.00 W/m2
07:14 32.9 °F 31.4 °F 30.23 in NNE 8.1 mph 4.8 mph 94% 0.00 in 0.00 W/m2
07:19 32.8 °F 31.3 °F 30.23 in NE 11.5 mph 8.1 mph 94% 0.00 in 0.00 W/m2
07:24 32.6 °F 31.1 °F 30.23 in NNE 10.4 mph 9.1 mph 94% 0.00 in 0.00 W/m2
07:29 32.3 °F 30.8 °F 30.24 in NNE 9.2 mph 8.1 mph 94% 0.00 in 0.00 W/m2
07:34 32.3 °F 30.8 °F 30.25 in NNE 10.4 mph 7.8 mph 94% 0.00 in 0.00 W/m2
07:39 32.2 °F 30.7 °F 30.25 in NNE 9.2 mph 7.1 mph 94% 0.00 in 0.00 W/m2
07:44 32.3 °F 30.8 °F 30.25 in NNE 9.2 mph 5.1 mph 94% 0.00 in 0.00 W/m2
07:49 32.3 °F 30.8 °F 30.26 in NNE 9.0 mph 6.8 mph 94% 0.00 in 5.00 W/m2
07:54 32.2 °F 30.7 °F 30.26 in North 11.5 mph 8.6 mph 94% 0.00 in 7.00 W/m2
07:59 32.2 °F 30.7 °F 30.26 in NE 9.2 mph 5.2 mph 94% 0.00 in 11.00 W/m2
08:04 32.2 °F 30.4 °F 30.26 in NNE 9.2 mph 7.2 mph 93% 0.00 in 14.00 W/m2
08:09 32.2 °F 30.4 °F 30.26 in NNE 8.0 mph 5.9 mph 93% 0.00 in 18.00 W/m2
08:14 32.2 °F 30.4 °F 30.26 in North 11.5 mph 7.5 mph 93% 0.00 in 21.00 W/m2
08:20 32.2 °F 30.4 °F 30.27 in NE 9.2 mph 6.6 mph 93% 0.00 in 23.00 W/m2
08:24 32.3 °F 30.5 °F 30.27 in NNE 9.2 mph 7.6 mph 93% 0.00 in 25.00 W/m2
08:29 32.2 °F 30.4 °F 30.27 in NNE 10.4 mph 8.8 mph 93% 0.00 in 26.00 W/m2
08:34 32.2 °F 30.4 °F 30.28 in NE 11.5 mph 6.0 mph 93% 0.00 in 26.00 W/m2
08:39 32.2 °F 30.4 °F 30.29 in NNE 9.2 mph 5.4 mph 93% 0.00 in 28.00 W/m2
08:44 32.3 °F 30.5 °F 30.29 in NNE 8.1 mph 5.5 mph 93% 0.00 in 28.00 W/m2
08:49 32.3 °F 30.5 °F 30.28 in NNE 9.2 mph 6.5 mph 93% 0.00 in 32.00 W/m2
08:54 32.2 °F 30.4 °F 30.28 in NNE 11.5 mph 8.0 mph 93% 0.00 in 35.00 W/m2
08:59 32.2 °F 30.1 °F 30.29 in NNE 9.2 mph 7.4 mph 92% 0.00 in 33.00 W/m2
09:04 32.2 °F 30.1 °F 30.29 in NNE 9.2 mph 6.6 mph 92% 0.00 in 37.00 W/m2
09:09 32.1 °F 30.0 °F 30.29 in NNE 9.2 mph 7.1 mph 92% 0.00 in 39.00 W/m2
09:14 32.2 °F 30.1 °F 30.29 in North 8.1 mph 6.1 mph 92% 0.00 in 44.00 W/m2
09:19 32.2 °F 30.1 °F 30.29 in NNE 11.5 mph 8.2 mph 92% 0.00 in 49.00 W/m2
09:24 32.3 °F 30.2 °F 30.30 in NNE 9.2 mph 8.6 mph 92% 0.00 in 51.00 W/m2
09:29 32.2 °F 30.1 °F 30.30 in NNE 12.7 mph 8.5 mph 92% 0.00 in 53.00 W/m2
09:34 32.2 °F 30.1 °F 30.30 in North 8.1 mph 6.8 mph 92% 0.00 in 56.00 W/m2
09:39 32.3 °F 30.2 °F 30.30 in NNE 9.2 mph 6.3 mph 92% 0.00 in 56.00 W/m2
09:44 32.3 °F 30.2 °F 30.30 in NNE 9.2 mph 6.5 mph 92% 0.00 in 58.00 W/m2
09:49 32.3 °F 30.2 °F 30.31 in NNE 11.5 mph 7.5 mph 92% 0.00 in 62.00 W/m2
09:54 32.3 °F 30.2 °F 30.30 in NNE 9.2 mph 5.2 mph 92% 0.00 in 65.00 W/m2
09:59 32.3 °F 30.2 °F 30.30 in NNE 9.2 mph 5.8 mph 92% 0.00 in 62.00 W/m2
10:04 32.4 °F 30.3 °F 30.30 in North 6.9 mph 5.1 mph 92% 0.00 in 77.00 W/m2
10:09 32.5 °F 30.4 °F 30.31 in NNE 10.4 mph 7.3 mph 92% 0.00 in 81.00 W/m2
10:14 32.5 °F 30.7 °F 30.30 in North 8.1 mph 5.5 mph 93% 0.00 in 88.00 W/m2
10:19 32.5 °F 30.7 °F 30.30 in NNE 10.4 mph 7.6 mph 93% 0.00 in 83.00 W/m2
10:24 32.5 °F 30.7 °F 30.31 in NNE 9.2 mph 6.9 mph 93% 0.00 in 77.00 W/m2
10:29 32.4 °F 30.6 °F 30.31 in North 8.1 mph 5.2 mph 93% 0.00 in 74.00 W/m2
10:34 32.3 °F 30.8 °F 30.31 in North 6.9 mph 5.4 mph 94% 0.00 in 72.00 W/m2
10:39 32.3 °F 30.5 °F 30.31 in NNE 8.1 mph 5.0 mph 93% 0.00 in 77.00 W/m2
10:44 32.3 °F 30.8 °F 30.32 in North 5.8 mph 4.5 mph 94% 0.00 in 67.00 W/m2
10:49 32.4 °F 30.9 °F 30.32 in NNW 4.6 mph 3.5 mph 94% 0.00 in 65.00 W/m2
10:54 32.3 °F 30.8 °F 30.32 in North 5.8 mph 4.9 mph 94% 0.00 in 67.00 W/m2
10:59 32.2 °F 30.7 °F 30.31 in North 7.0 mph 5.2 mph 94% 0.00 in 65.00 W/m2
11:04 32.2 °F 30.7 °F 30.32 in North 7.0 mph 5.1 mph 94% 0.00 in 60.00 W/m2
11:09 32.0 °F 30.5 °F 30.32 in NNW 8.1 mph 4.1 mph 94% 0.00 in 60.00 W/m2
11:14 32.1 °F 30.6 °F 30.32 in North 5.8 mph 4.5 mph 94% 0.00 in 60.00 W/m2
11:19 32.0 °F 30.5 °F 30.31 in NNW 6.9 mph 3.4 mph 94% 0.00 in 62.00 W/m2
11:24 31.9 °F 30.4 °F 30.31 in NNW 3.5 mph 1.7 mph 94% 0.00 in 65.00 W/m2
11:29 31.9 °F 30.4 °F 30.31 in NW 5.8 mph 2.7 mph 94% 0.00 in 72.00 W/m2
11:34 31.9 °F 30.4 °F 30.31 in NNW 4.6 mph 3.5 mph 94% 0.00 in 74.00 W/m2
11:39 31.9 °F 30.4 °F 30.31 in NW 3.5 mph 2.8 mph 94% 0.00 in 79.00 W/m2
11:44 32.0 °F 30.5 °F 30.30 in WNW 4.6 mph 2.1 mph 94% 0.00 in 79.00 W/m2
11:49 31.9 °F 30.4 °F 30.31 in WNW 4.6 mph 1.1 mph 94% 0.00 in 81.00 W/m2
11:54 32.0 °F 30.5 °F 30.30 in NNW 3.5 mph 2.3 mph 94% 0.00 in 70.00 W/m2
11:59 32.0 °F 30.5 °F 30.30 in NNW 3.5 mph 2.7 mph 94% 0.00 in 83.00 W/m2
12:04 32.0 °F 30.5 °F 30.30 in NNW 7.0 mph 5.3 mph 94% 0.00 in 77.00 W/m2
12:09 31.9 °F 30.4 °F 30.30 in NNW 5.0 mph 2.6 mph 94% 0.00 in 84.00 W/m2
12:14 31.9 °F 30.4 °F 30.29 in NNW 4.6 mph 3.2 mph 94% 0.00 in 91.00 W/m2
12:19 31.9 °F 30.4 °F 30.29 in NNW 5.0 mph 5.0 mph 94% 0.00 in 86.00 W/m2
12:25 31.9 °F 30.4 °F 30.29 in NNW 6.9 mph 5.1 mph 94% 0.00 in 88.00 W/m2
12:29 32.0 °F 30.5 °F 30.28 in NNW 6.9 mph 5.0 mph 94% 0.00 in 91.00 W/m2
12:35 32.0 °F 30.5 °F 30.29 in NW 5.8 mph 3.9 mph 94% 0.00 in 90.00 W/m2
12:39 32.1 °F 30.6 °F 30.29 in NNW 7.0 mph 6.3 mph 94% 0.00 in 91.00 W/m2
12:44 32.0 °F 30.5 °F 30.29 in North 8.1 mph 5.1 mph 94% 0.00 in 77.00 W/m2
12:49 32.0 °F 30.5 °F 30.29 in NNW 9.2 mph 5.3 mph 94% 0.00 in 65.00 W/m2
12:54 31.9 °F 30.4 °F 30.29 in NNW 5.0 mph 5.5 mph 94% 0.00 in 72.00 W/m2
12:59 31.7 °F 29.9 °F 30.29 in NNW 5.8 mph 4.1 mph 93% 0.00 in 74.00 W/m2
13:04 31.8 °F 30.3 °F 30.30 in NW 5.8 mph 4.6 mph 94% 0.00 in 65.00 W/m2
13:09 31.8 °F 30.3 °F 30.29 in NNW 5.8 mph 3.6 mph 94% 0.00 in 51.00 W/m2
13:14 31.9 °F 30.4 °F 30.29 in NNW 6.9 mph 5.0 mph 94% 0.00 in 62.00 W/m2
13:19 31.9 °F 30.4 °F 30.30 in North 6.9 mph 4.9 mph 94% 0.00 in 53.00 W/m2
13:24 31.9 °F 30.4 °F 30.30 in NNW 5.8 mph 3.4 mph 94% 0.00 in 54.00 W/m2
13:29 31.9 °F 30.4 °F 30.30 in NNW 4.6 mph 4.2 mph 94% 0.00 in 44.00 W/m2
13:34 31.9 °F 30.4 °F 30.30 in North 6.9 mph 4.5 mph 94% 0.00 in 51.00 W/m2
13:39 31.8 °F 30.3 °F 30.30 in NNW 6.9 mph 4.3 mph 94% 0.00 in 51.00 W/m2
13:44 31.8 °F 30.0 °F 30.30 in NNW 5.8 mph 4.5 mph 93% 0.00 in 53.00 W/m2
13:49 31.8 °F 30.3 °F 30.30 in North 5.8 mph 4.0 mph 94% 0.00 in 56.00 W/m2
13:55 31.9 °F 30.4 °F 30.30 in NNW 5.0 mph 4.2 mph 94% 0.00 in 53.00 W/m2
13:59 31.8 °F 30.0 °F 30.30 in NNW 6.9 mph 3.8 mph 93% 0.00 in 47.00 W/m2
14:04 31.8 °F 30.3 °F 30.30 in North 6.0 mph 4.1 mph 94% 0.00 in 40.00 W/m2
14:09 31.8 °F 30.3 °F 30.30 in NNW 9.2 mph 5.3 mph 94% 0.00 in 49.00 W/m2
14:14 31.8 °F 30.3 °F 30.30 in NNW 7.0 mph 4.9 mph 94% 0.00 in 42.00 W/m2
14:19 31.7 °F 30.2 °F 30.30 in North 6.0 mph 4.5 mph 94% 0.00 in 40.00 W/m2
14:24 31.7 °F 30.2 °F 30.30 in North 6.9 mph 4.4 mph 94% 0.00 in 40.00 W/m2
14:29 31.8 °F 30.3 °F 30.30 in North 5.0 mph 3.6 mph 94% 0.00 in 42.00 W/m2
14:34 31.9 °F 30.4 °F 30.30 in NNW 6.9 mph 4.8 mph 94% 0.00 in 44.00 W/m2
14:39 31.9 °F 30.4 °F 30.30 in NNW 5.8 mph 3.3 mph 94% 0.00 in 39.00 W/m2
14:44 31.9 °F 30.4 °F 30.30 in North 6.9 mph 4.8 mph 94% 0.00 in 28.00 W/m2
14:49 31.9 °F 30.4 °F 30.30 in North 6.0 mph 4.3 mph 94% 0.00 in 26.00 W/m2
14:54 31.8 °F 30.3 °F 30.30 in North 6.9 mph 4.4 mph 94% 0.00 in 30.00 W/m2
14:59 31.8 °F 30.3 °F 30.30 in NNW 4.6 mph 3.9 mph 94% 0.00 in 35.00 W/m2
15:04 31.8 °F 30.3 °F 30.30 in North 5.0 mph 4.3 mph 94% 0.00 in 25.00 W/m2
15:09 31.8 °F 30.3 °F 30.30 in North 5.0 mph 4.7 mph 94% 0.00 in 18.00 W/m2
15:14 31.9 °F 30.4 °F 30.31 in North 4.6 mph 4.6 mph 94% 0.00 in 19.00 W/m2
15:19 31.9 °F 30.4 °F 30.31 in North 6.0 mph 4.1 mph 94% 0.00 in 12.00 W/m2
15:24 31.8 °F 30.3 °F 30.31 in NNE 5.8 mph 4.2 mph 94% 0.00 in 14.00 W/m2
15:29 31.7 °F 30.2 °F 30.31 in NE 5.8 mph 4.7 mph 94% 0.00 in 19.00 W/m2
15:34 31.7 °F 30.2 °F 30.31 in NE 5.0 mph 4.6 mph 94% 0.00 in 18.00 W/m2
15:39 31.7 °F 30.2 °F 30.31 in NE 6.9 mph 4.4 mph 94% 0.00 in 14.00 W/m2
15:44 31.7 °F 30.2 °F 30.31 in NNE 5.8 mph 5.2 mph 94% 0.00 in 11.00 W/m2
15:49 31.7 °F 30.2 °F 30.31 in NNE 5.8 mph 5.1 mph 94% 0.00 in 9.00 W/m2
15:54 31.6 °F 30.1 °F 30.31 in NNE 5.0 mph 3.5 mph 94% 0.00 in 5.00 W/m2
15:59 31.6 °F 30.1 °F 30.31 in North 5.8 mph 4.0 mph 94% 0.00 in 5.00 W/m2
16:04 31.6 °F 30.1 °F 30.32 in NNE 4.0 mph 2.7 mph 94% 0.00 in 0.00 W/m2
16:09 31.6 °F 30.1 °F 30.32 in NNE 5.8 mph 2.8 mph 94% 0.00 in 0.00 W/m2
16:14 31.4 °F 29.9 °F 30.32 in NE 5.8 mph 4.3 mph 94% 0.00 in 0.00 W/m2
16:19 31.4 °F 29.9 °F 30.33 in NNE 5.8 mph 4.3 mph 94% 0.00 in 0.00 W/m2
16:24 31.3 °F 29.8 °F 30.33 in NE 6.9 mph 5.5 mph 94% 0.00 in 0.00 W/m2
16:29 31.1 °F 29.6 °F 30.32 in NE 5.8 mph 4.4 mph 94% 0.00 in 0.00 W/m2
16:34 31.1 °F 29.6 °F 30.33 in NNE 5.8 mph 4.7 mph 94% 0.00 in 0.00 W/m2
16:39 31.1 °F 29.6 °F 30.32 in NE 5.8 mph 4.3 mph 94% 0.00 in 0.00 W/m2
16:44 31.1 °F 29.6 °F 30.32 in NE 6.0 mph 4.4 mph 94% 0.00 in 0.00 W/m2
16:49 31.0 °F 29.5 °F 30.33 in NE 5.8 mph 4.5 mph 94% 0.00 in 0.00 W/m2
16:55 31.0 °F 29.5 °F 30.33 in NNE 4.6 mph 4.2 mph 94% 0.00 in 0.00 W/m2
16:59 31.0 °F 29.5 °F 30.33 in NNE 6.0 mph 4.7 mph 94% 0.00 in 0.00 W/m2
17:04 30.9 °F 29.4 °F 30.33 in NNE 5.8 mph 4.6 mph 94% 0.00 in 0.00 W/m2
17:09 30.8 °F 29.3 °F 30.34 in NNE 5.8 mph 5.1 mph 94% 0.00 in 0.00 W/m2
17:14 30.8 °F 29.3 °F 30.34 in NNE 6.9 mph 4.0 mph 94% 0.00 in 0.00 W/m2
17:19 30.7 °F 29.2 °F 30.34 in NNE 5.8 mph 5.5 mph 94% 0.00 in 0.00 W/m2
17:25 30.6 °F 29.1 °F 30.34 in NNE 6.9 mph 4.7 mph 94% 0.00 in 0.00 W/m2
17:29 30.6 °F 29.1 °F 30.33 in NNE 5.8 mph 3.9 mph 94% 0.00 in 0.00 W/m2
17:34 30.7 °F 29.2 °F 30.33 in NNE 5.0 mph 4.1 mph 94% 0.00 in 0.00 W/m2
17:39 30.7 °F 29.2 °F 30.33 in NNE 5.8 mph 4.1 mph 94% 0.00 in 0.00 W/m2
17:44 30.7 °F 29.2 °F 30.33 in NNW 5.8 mph 4.3 mph 94% 0.00 in 0.00 W/m2
17:49 30.7 °F 29.2 °F 30.33 in North 6.9 mph 5.0 mph 94% 0.00 in 0.00 W/m2
17:54 30.6 °F 29.1 °F 30.33 in North 7.0 mph 4.7 mph 94% 0.00 in 0.00 W/m2
17:59 30.5 °F 29.0 °F 30.33 in North 6.0 mph 6.0 mph 94% 0.00 in 0.00 W/m2
18:05 30.5 °F 29.0 °F 30.34 in North 6.0 mph 4.1 mph 94% 0.00 in 0.00 W/m2
18:09 30.3 °F 28.8 °F 30.34 in North 8.1 mph 5.6 mph 94% 0.00 in 0.00 W/m2
18:14 30.2 °F 28.7 °F 30.34 in NW 6.9 mph 4.2 mph 94% 0.00 in 0.00 W/m2
18:19 30.2 °F 28.7 °F 30.34 in NNW 4.6 mph 5.0 mph 94% 0.00 in 0.00 W/m2
18:25 30.1 °F 28.6 °F 30.34 in NNW 4.6 mph 3.5 mph 94% 0.00 in 0.00 W/m2
18:29 30.1 °F 28.6 °F 30.34 in North 5.0 mph 3.9 mph 94% 0.00 in 0.00 W/m2
18:34 30.1 °F 28.6 °F 30.35 in NNW 3.5 mph 2.4 mph 94% 0.00 in 0.00 W/m2
18:39 30.0 °F 28.5 °F 30.35 in NNW 3.5 mph 2.0 mph 94% 0.00 in 0.00 W/m2
18:44 29.9 °F 28.4 °F 30.35 in North 3.5 mph 3.0 mph 94% 0.00 in 0.00 W/m2
18:49 29.9 °F 28.4 °F 30.35 in North 4.6 mph 3.0 mph 94% 0.00 in 0.00 W/m2
18:54 29.9 °F 28.4 °F 30.34 in NNW 4.0 mph 3.0 mph 94% 0.00 in 0.00 W/m2
18:59 29.9 °F 28.4 °F 30.34 in NNW 4.6 mph 4.6 mph 94% 0.00 in 0.00 W/m2
19:04 29.9 °F 28.4 °F 30.34 in NNW 3.5 mph 2.9 mph 94% 0.00 in 0.00 W/m2
19:09 29.9 °F 28.4 °F 30.35 in NNW 4.6 mph 3.9 mph 94% 0.00 in 0.00 W/m2
19:14 29.9 °F 28.4 °F 30.34 in NNW 3.5 mph 1.6 mph 94% 0.00 in 0.00 W/m2
19:19 29.9 °F 28.4 °F 30.35 in NNW 5.8 mph 4.5 mph 94% 0.00 in 0.00 W/m2
19:24 29.7 °F 28.2 °F 30.36 in NNW 4.6 mph 4.0 mph 94% 0.00 in 0.00 W/m2
19:29 29.8 °F 28.3 °F 30.35 in North 3.5 mph 2.4 mph 94% 0.00 in 0.00 W/m2
19:34 29.7 °F 28.2 °F 30.35 in NNW 4.6 mph 3.0 mph 94% 0.00 in 0.00 W/m2
19:39 29.7 °F 28.2 °F 30.35 in NNW 5.0 mph 3.1 mph 94% 0.00 in 0.00 W/m2
19:44 29.6 °F 28.1 °F 30.35 in NNW 3.5 mph 2.3 mph 94% 0.00 in 0.00 W/m2
19:49 29.6 °F 28.1 °F 30.34 in NNW 3.5 mph 1.0 mph 94% 0.00 in 0.00 W/m2
19:54 29.6 °F 28.1 °F 30.34 in NNW 3.5 mph 1.9 mph 94% 0.00 in 0.00 W/m2
19:59 29.6 °F 28.1 °F 30.35 in NNW 3.5 mph 2.0 mph 94% 0.00 in 0.00 W/m2
20:04 29.6 °F 28.1 °F 30.34 in NNW 2.3 mph 2.0 mph 94% 0.00 in 0.00 W/m2
20:09 29.6 °F 28.1 °F 30.35 in NNW 3.5 mph 0.7 mph 94% 0.00 in 0.00 W/m2
20:14 29.7 °F 28.2 °F 30.34 in NNW 1.2 mph 0.4 mph 94% 0.00 in 0.00 W/m2
20:20 29.7 °F 28.2 °F 30.34 in NNW 1.2 mph   94% 0.00 in 0.00 W/m2
20:24 29.9 °F 28.4 °F 30.34 in NNW 1.2 mph 0.8 mph 94% 0.00 in 0.00 W/m2
20:29 29.8 °F 28.3 °F 30.34 in NNW 3.5 mph 0.6 mph 94% 0.00 in 0.00 W/m2
20:34 29.8 °F 28.3 °F 30.34 in NNW 3.5 mph 2.5 mph 94% 0.00 in 0.00 W/m2
20:39 29.7 °F 28.2 °F 30.33 in NNW 3.5 mph 2.7 mph 94% 0.00 in 0.00 W/m2
20:44 29.6 °F 28.1 °F 30.34 in NNW 3.5 mph 2.3 mph 94% 0.00 in 0.00 W/m2
20:49 29.6 °F 28.1 °F 30.33 in North 3.5 mph 2.1 mph 94% 0.00 in 0.00 W/m2
20:54 29.5 °F 28.0 °F 30.33 in NNW 4.0 mph 3.1 mph 94% 0.00 in 0.00 W/m2
20:59 29.5 °F 28.0 °F 30.33 in NNW 4.0 mph 0.9 mph 94% 0.00 in 0.00 W/m2
21:04 29.5 °F 28.0 °F 30.33 in North 3.5 mph 0.9 mph 94% 0.00 in 0.00 W/m2
21:09 29.5 °F 28.0 °F 30.33 in NNW 1.2 mph 0.8 mph 94% 0.00 in 0.00 W/m2
21:14 29.6 °F 28.1 °F 30.33 in NNW 1.0 mph 0.2 mph 94% 0.00 in 0.00 W/m2
21:19 29.6 °F 28.1 °F 30.33 in NNW 3.5 mph 1.2 mph 94% 0.00 in 0.00 W/m2
21:24 29.6 °F 28.1 °F 30.33 in NNW 2.3 mph 1.6 mph 94% 0.00 in 0.00 W/m2
21:29 29.6 °F 28.1 °F 30.33 in NNW 3.5 mph 1.8 mph 94% 0.00 in 0.00 W/m2
21:34 29.6 °F 28.1 °F 30.33 in NNW 3.5 mph 1.2 mph 94% 0.00 in 0.00 W/m2
21:39 29.6 °F 28.1 °F 30.33 in NNW 2.3 mph 1.5 mph 94% 0.00 in 0.00 W/m2
21:45 29.5 °F 28.0 °F 30.33 in NNW 3.5 mph 2.0 mph 94% 0.00 in 0.00 W/m2
21:49 29.5 °F 28.0 °F 30.32 in NNW 4.0 mph 1.8 mph 94% 0.00 in 0.00 W/m2
21:54 29.5 °F 28.0 °F 30.32 in NNW 2.3 mph 0.8 mph 94% 0.00 in 0.00 W/m2
21:59 29.5 °F 28.0 °F 30.32 in NNW 4.0 mph 2.9 mph 94% 0.00 in 0.00 W/m2
22:04 29.4 °F 27.9 °F 30.32 in NNW 3.5 mph 3.3 mph 94% 0.00 in 0.00 W/m2
22:09 29.3 °F 27.8 °F 30.32 in NNW 4.6 mph 3.2 mph 94% 0.00 in 0.00 W/m2
22:14 29.3 °F 27.8 °F 30.32 in NNW 5.0 mph 3.7 mph 94% 0.00 in 0.00 W/m2
22:19 29.3 °F 27.8 °F 30.32 in NNW 5.8 mph 3.8 mph 94% 0.00 in 0.00 W/m2
22:24 29.3 °F 27.8 °F 30.32 in NNW 1.2 mph 1.1 mph 94% 0.00 in 0.00 W/m2
22:29 29.3 °F 27.8 °F 30.32 in NNW 3.5 mph 0.7 mph 94% 0.00 in 0.00 W/m2
22:34 29.3 °F 27.8 °F 30.32 in NNW 3.5 mph 2.4 mph 94% 0.00 in 0.00 W/m2
22:39 29.3 °F 27.8 °F 30.32 in NNW 3.5 mph 2.7 mph 94% 0.00 in 0.00 W/m2
22:44 29.3 °F 27.8 °F 30.32 in NNW 3.5 mph 2.1 mph 94% 0.00 in 0.00 W/m2
22:49 29.4 °F 27.9 °F 30.32 in NNW 3.5 mph 2.7 mph 94% 0.00 in 0.00 W/m2
22:54 29.4 °F 27.9 °F 30.32 in NNW 3.5 mph 2.8 mph 94% 0.00 in 0.00 W/m2
22:59 29.3 °F 27.8 °F 30.32 in NNW 3.5 mph 1.6 mph 94% 0.00 in 0.00 W/m2
23:04 29.3 °F 27.8 °F 30.32 in NNW 3.5 mph 1.9 mph 94% 0.00 in 0.00 W/m2
23:09 29.3 °F 27.8 °F 30.32 in NNW 2.3 mph 0.5 mph 94% 0.00 in 0.00 W/m2
23:14 29.3 °F 27.8 °F 30.32 in Calm     94% 0.00 in 0.00 W/m2
23:19 29.3 °F 27.8 °F 30.32 in NNW 3.5 mph 2.7 mph 94% 0.00 in 0.00 W/m2
23:24 29.3 °F 27.8 °F 30.32 in NNW 3.5 mph 0.7 mph 94% 0.00 in 0.00 W/m2
23:29 29.3 °F 27.8 °F 30.32 in NNW 2.3 mph 0.7 mph 94% 0.00 in 0.00 W/m2
23:34 29.4 °F 27.9 °F 30.32 in NNW 1.2 mph   94% 0.00 in 0.00 W/m2
23:39 29.4 °F 27.9 °F 30.32 in Calm     94% 0.00 in 0.00 W/m2
23:44 29.5 °F 28.0 °F 30.32 in Calm     94% 0.00 in 0.00 W/m2
23:49 29.5 °F 28.0 °F 30.32 in NNW 2.3 mph 1.5 mph 94% 0.00 in 0.00 W/m2
23:54 29.5 °F 28.0 °F 30.32 in NNW 2.3 mph 1.3 mph 94% 0.00 in 0.00 W/m2
23:59 29.5 °F 28.0 °F 30.32 in NNW 2.3 mph 1.3 mph 94% 0.00 in 0.00 W/m2
Bourbonnais, Illinois, USA
Compliments of Weather Underground - 4 mb